Time,TemperatureF,DewpointF,PressureIn,WindDirection,WindDirectionDegrees,WindSpeedMPH,WindSpeedGustMPH,Humidity,HourlyPrecipIn,Conditions,Clouds,dailyrainin,SoftwareType,DateUTC
2013-07-02 00:00:00,60.9,58.6,29.81,East,79,4.0,5.0,92,0.00,,,0.11,Wunderground v.1.15,2013-07-02 04:00:00,
2013-07-02 00:05:00,61.0,58.7,29.80,ENE,57,4.0,5.0,92,0.00,,,0.00,Wunderground v.1.15,2013-07-02 04:05:00,
2013-07-02 00:10:00,61.0,58.7,29.80,NE,49,4.0,5.0,92,0.00,,,0.00,Wunderground v.1.15,2013-07-02 04:10:00,
2013-07-02 00:20:00,61.1,58.8,29.81,ENE,61,4.0,4.0,92,0.00,,,0.00,Wunderground v.1.15,2013-07-02 04:20:00,
2013-07-02 00:25:00,61.1,58.5,29.81,ENE,58,4.0,4.0,91,0.00,,,0.00,Wunderground v.1.15,2013-07-02 04:25:00,
2013-07-02 00:35:00,61.2,58.6,29.81,ENE,75,3.0,4.0,91,0.00,,,0.00,Wunderground v.1.15,2013-07-02 04:35:00,
2013-07-02 00:45:00,61.1,58.5,29.81,NNE,33,4.0,6.0,91,0.00,,,0.00,Wunderground v.1.15,2013-07-02 04:45:00,
2013-07-02 00:55:00,61.0,58.4,29.81,NE,51,5.0,7.0,91,0.00,,,0.00,Wunderground v.1.15,2013-07-02 04:55:00,
2013-07-02 01:05:00,60.6,58.6,29.81,ENE,78,6.0,6.0,93,0.00,,,0.00,Wunderground v.1.15,2013-07-02 05:05:00,
2013-07-02 01:15:00,60.4,58.4,29.81,ENE,67,5.0,8.0,93,0.00,,,0.00,Wunderground v.1.15,2013-07-02 05:15:00,
2013-07-02 01:25:00,60.3,58.6,29.81,NE,48,5.0,7.0,94,0.00,,,0.00,Wunderground v.1.15,2013-07-02 05:25:00,
2013-07-02 01:35:00,60.2,58.5,29.81,ENE,61,4.0,7.0,94,0.00,,,0.00,Wunderground v.1.15,2013-07-02 05:35:00,
2013-07-02 01:40:00,60.1,58.4,29.82,NE,46,5.0,5.0,94,0.00,,,0.00,Wunderground v.1.15,2013-07-02 05:40:00,
2013-07-02 01:50:00,60.1,58.4,29.81,NE,55,2.0,3.0,94,0.00,,,0.00,Wunderground v.1.15,2013-07-02 05:50:00,
2013-07-02 01:55:00,60.1,58.7,29.82,NE,47,2.0,3.0,95,0.00,,,0.00,Wunderground v.1.15,2013-07-02 05:55:00,
2013-07-02 02:05:00,60.1,58.7,29.81,NE,49,1.0,3.0,95,0.00,,,0.00,Wunderground v.1.15,2013-07-02 06:05:00,
2013-07-02 02:15:00,60.1,58.7,29.80,NE,49,1.0,2.0,95,0.00,,,0.00,Wunderground v.1.15,2013-07-02 06:15:00,
2013-07-02 02:25:00,60.1,58.7,29.80,NE,49,1.0,2.0,95,0.00,,,0.00,Wunderground v.1.15,2013-07-02 06:25:00,
2013-07-02 02:35:00,60.1,58.7,29.80,NE,49,1.0,1.0,95,0.00,,,0.00,Wunderground v.1.15,2013-07-02 06:35:00,
2013-07-02 02:45:00,60.2,58.8,29.80,NE,38,2.0,3.0,95,0.00,,,0.00,Wunderground v.1.15,2013-07-02 06:45:00,
2013-07-02 02:55:00,60.2,58.5,29.80,ENE,74,2.0,3.0,94,0.00,,,0.00,Wunderground v.1.15,2013-07-02 06:55:00,
2013-07-02 03:00:00,60.3,58.6,29.80,NE,43,2.0,2.0,94,0.00,,,0.00,Wunderground v.1.15,2013-07-02 07:00:00,
2013-07-02 03:05:00,60.4,58.4,29.80,NE,44,1.0,2.0,93,0.00,,,0.00,Wunderground v.1.15,2013-07-02 07:05:00,
2013-07-02 03:15:00,60.4,58.4,29.79,North,360,2.0,3.0,93,0.00,,,0.00,Wunderground v.1.15,2013-07-02 07:15:00,
2013-07-02 03:20:00,60.4,58.4,29.79,ENE,76,3.0,7.0,93,0.00,,,0.00,Wunderground v.1.15,2013-07-02 07:20:00,
2013-07-02 03:25:00,60.4,58.4,29.79,NNE,30,3.0,7.0,93,0.00,,,0.00,Wunderground v.1.15,2013-07-02 07:25:00,
2013-07-02 04:45:00,60.0,58.3,29.77,ENE,61,3.0,3.0,94,0.00,,,0.00,Wunderground v.1.15,2013-07-02 08:45:00,
2013-07-02 04:55:00,60.1,58.4,29.78,NW,323,1.0,1.0,94,0.00,,,0.00,Wunderground v.1.15,2013-07-02 08:55:00,
2013-07-02 05:00:00,60.1,58.4,29.78,NW,323,0.0,1.0,94,0.00,,,0.00,Wunderground v.1.15,2013-07-02 09:00:00,
2013-07-02 05:05:00,60.2,58.5,29.77,NNW,333,1.0,1.0,94,0.00,,,0.00,Wunderground v.1.15,2013-07-02 09:05:00,
2013-07-02 05:15:00,60.2,58.5,29.77,NE,55,1.0,2.0,94,0.00,,,0.00,Wunderground v.1.15,2013-07-02 09:15:00,
2013-07-02 05:25:00,60.2,58.2,29.77,NE,47,3.0,3.0,93,0.00,,,0.00,Wunderground v.1.15,2013-07-02 09:25:00,
2013-07-02 05:30:00,60.2,58.2,29.77,NNE,15,2.0,2.0,93,0.00,,,0.00,Wunderground v.1.15,2013-07-02 09:30:00,
2013-07-02 05:40:00,60.3,58.3,29.77,NNE,30,2.0,2.0,93,0.00,,,0.00,Wunderground v.1.15,2013-07-02 09:40:00,
2013-07-02 05:50:00,60.4,58.4,29.78,NNE,30,0.0,0.0,93,0.00,,,0.00,Wunderground v.1.15,2013-07-02 09:50:00,
2013-07-02 05:55:00,60.4,58.4,29.78,NNE,30,0.0,2.0,93,0.00,,,0.00,Wunderground v.1.15,2013-07-02 09:55:00,
2013-07-02 06:05:00,60.4,58.7,29.78,NNE,30,0.0,0.0,94,0.00,,,0.00,Wunderground v.1.15,2013-07-02 10:05:00,
2013-07-02 06:15:00,60.5,58.8,29.77,ENE,77,1.0,2.0,94,0.00,,,0.00,Wunderground v.1.15,2013-07-02 10:15:00,
2013-07-02 06:25:00,60.5,58.8,29.79,NNW,327,1.0,2.0,94,0.00,,,0.00,Wunderground v.1.15,2013-07-02 10:25:00,
2013-07-02 06:35:00,60.6,58.9,29.78,SSW,211,0.0,1.0,94,0.00,,,0.00,Wunderground v.1.15,2013-07-02 10:35:00,
2013-07-02 06:40:00,60.7,59.0,29.78,SSW,211,1.0,1.0,94,0.00,,,0.00,Wunderground v.1.15,2013-07-02 10:40:00,
2013-07-02 06:45:00,60.7,59.0,29.78,SSW,211,1.0,1.0,94,0.00,,,0.00,Wunderground v.1.15,2013-07-02 10:45:00,
2013-07-02 06:55:00,60.9,59.2,29.78,SSW,211,0.0,2.0,94,0.00,,,0.00,Wunderground v.1.15,2013-07-02 10:55:00,
2013-07-02 07:06:00,61.1,59.4,29.79,SW,216,0.0,0.0,94,0.00,,,0.00,Wunderground v.1.15,2013-07-02 11:06:00,
2013-07-02 07:15:00,61.3,59.6,29.79,SW,223,0.0,1.0,94,0.00,,,0.00,Wunderground v.1.15,2013-07-02 11:15:00,
2013-07-02 07:20:00,61.4,60.0,29.80,North,11,1.0,1.0,95,0.00,,,0.00,Wunderground v.1.15,2013-07-02 11:20:00,
2013-07-02 07:30:00,61.4,60.0,29.80,NW,326,1.0,1.0,95,0.00,,,0.00,Wunderground v.1.15,2013-07-02 11:30:00,
2013-07-02 07:40:00,61.5,60.1,29.80,NW,326,0.0,0.0,95,0.00,,,0.00,Wunderground v.1.15,2013-07-02 11:40:00,
2013-07-02 07:50:00,61.7,60.0,29.79,NE,36,1.0,3.0,94,0.00,,,0.00,Wunderground v.1.15,2013-07-02 11:50:00,
2013-07-02 08:00:00,62.1,60.4,29.80,NNE,25,2.0,2.0,94,0.00,,,0.00,Wunderground v.1.15,2013-07-02 12:00:00,
2013-07-02 08:06:00,62.3,60.2,29.80,NNE,25,0.0,2.0,93,0.00,,,0.00,Wunderground v.1.15,2013-07-02 12:06:00,
2013-07-02 08:15:00,62.7,60.6,29.79,ENE,63,2.0,3.0,93,0.00,,,0.00,Wunderground v.1.15,2013-07-02 12:15:00,
2013-07-02 08:20:00,62.9,60.8,29.79,ENE,63,2.0,2.0,93,0.00,,,0.00,Wunderground v.1.15,2013-07-02 12:20:00,
2013-07-02 08:30:00,63.3,61.2,29.80,NE,37,2.0,2.0,93,0.00,,,0.00,Wunderground v.1.15,2013-07-02 12:30:00,
2013-07-02 08:35:00,63.4,61.3,29.80,NE,37,2.0,2.0,93,0.00,,,0.00,Wunderground v.1.15,2013-07-02 12:35:00,
2013-07-02 08:45:00,63.5,61.4,29.80,NNE,32,1.0,2.0,93,0.00,,,0.00,Wunderground v.1.15,2013-07-02 12:45:00,
2013-07-02 08:50:00,63.6,61.5,29.80,NE,53,2.0,3.0,93,0.00,,,0.00,Wunderground v.1.15,2013-07-02 12:50:00,
2013-07-02 09:00:00,63.6,61.5,29.80,ENE,71,3.0,3.0,93,0.00,,,0.00,Wunderground v.1.15,2013-07-02 13:00:00,
2013-07-02 09:05:00,63.7,61.9,29.80,NE,46,3.0,3.0,94,0.00,,,0.00,Wunderground v.1.15,2013-07-02 13:05:00,
2013-07-02 09:15:00,63.8,62.0,29.81,NE,46,2.0,3.0,94,0.00,,,0.00,Wunderground v.1.15,2013-07-02 13:15:00,
2013-07-02 09:25:00,63.9,62.1,29.81,ENE,72,2.0,2.0,94,0.00,,,0.00,Wunderground v.1.15,2013-07-02 13:25:00,
2013-07-02 09:30:00,63.9,62.1,29.81,ENE,71,2.0,3.0,94,0.00,,,0.00,Wunderground v.1.15,2013-07-02 13:30:00,
2013-07-02 09:40:00,64.0,62.5,29.81,NNE,24,3.0,3.0,95,0.00,,,0.00,Wunderground v.1.15,2013-07-02 13:40:00,
2013-07-02 09:50:00,64.3,62.8,29.80,NNE,29,2.0,2.0,95,0.00,,,0.00,Wunderground v.1.15,2013-07-02 13:50:00,
2013-07-02 09:55:00,64.4,62.9,29.80,ENE,66,2.0,2.0,95,0.00,,,0.00,Wunderground v.1.15,2013-07-02 13:55:00,
2013-07-02 10:00:00,64.3,62.8,29.80,NE,54,3.0,4.0,95,0.00,,,0.00,Wunderground v.1.15,2013-07-02 14:00:00,
2013-07-02 10:06:00,64.3,63.1,29.80,ENE,78,3.0,4.0,96,0.00,,,0.00,Wunderground v.1.15,2013-07-02 14:06:00,
2013-07-02 10:15:00,64.4,63.2,29.80,ENE,68,4.0,4.0,96,0.00,,,0.00,Wunderground v.1.15,2013-07-02 14:15:00,
2013-07-02 10:25:00,64.6,63.4,29.80,ENE,73,3.0,3.0,96,0.00,,,0.00,Wunderground v.1.15,2013-07-02 14:25:00,
2013-07-02 10:30:00,64.7,63.5,29.80,East,96,3.0,3.0,96,0.00,,,0.01,Wunderground v.1.15,2013-07-02 14:30:00,
2013-07-02 10:40:00,64.9,63.7,29.80,NE,36,3.0,3.0,96,0.00,,,0.01,Wunderground v.1.15,2013-07-02 14:40:00,
2013-07-02 10:50:00,65.1,63.9,29.80,NE,51,3.0,5.0,96,0.00,,,0.01,Wunderground v.1.15,2013-07-02 14:50:00,
2013-07-02 10:55:00,65.0,63.5,29.80,NE,47,3.0,5.0,95,0.00,,,0.01,Wunderground v.1.15,2013-07-02 14:55:00,
2013-07-02 11:00:00,64.9,63.4,29.80,ENE,71,3.0,3.0,95,0.00,,,0.01,Wunderground v.1.15,2013-07-02 15:00:00,
2013-07-02 11:05:00,65.0,63.8,29.80,ENE,65,3.0,3.0,96,0.00,,,0.01,Wunderground v.1.15,2013-07-02 15:05:00,
2013-07-02 11:15:00,65.0,63.8,29.80,North,9,3.0,4.0,96,0.00,,,0.01,Wunderground v.1.15,2013-07-02 15:15:00,
2013-07-02 11:20:00,65.2,64.0,29.80,ENE,61,3.0,5.0,96,0.00,,,0.01,Wunderground v.1.15,2013-07-02 15:20:00,
2013-07-02 11:30:00,65.2,64.0,29.80,ENE,73,3.0,3.0,96,0.00,,,0.01,Wunderground v.1.15,2013-07-02 15:30:00,
2013-07-02 11:35:00,65.2,64.0,29.80,ENE,59,3.0,3.0,96,0.00,,,0.01,Wunderground v.1.15,2013-07-02 15:35:00,
2013-07-02 11:40:00,65.2,64.0,29.80,NE,51,2.0,4.0,96,0.00,,,0.01,Wunderground v.1.15,2013-07-02 15:40:00,
2013-07-02 11:50:00,64.9,63.7,29.80,ENE,68,4.0,4.0,96,0.00,,,0.01,Wunderground v.1.15,2013-07-02 15:50:00,
2013-07-02 11:55:00,64.5,63.3,29.80,NE,46,4.0,4.0,96,0.00,,,0.01,Wunderground v.1.15,2013-07-02 15:55:00,
2013-07-02 12:06:00,64.3,63.1,29.81,ENE,75,3.0,4.0,96,0.00,,,0.01,Wunderground v.1.15,2013-07-02 16:06:00,
2013-07-02 12:15:00,64.3,63.4,29.81,NE,53,3.0,4.0,97,0.00,,,0.01,Wunderground v.1.15,2013-07-02 16:15:00,
2013-07-02 12:25:00,64.1,63.2,29.81,ENE,58,4.0,4.0,97,0.00,,,0.01,Wunderground v.1.15,2013-07-02 16:25:00,
2013-07-02 12:30:00,64.1,63.2,29.81,NE,40,4.0,4.0,97,0.00,,,0.01,Wunderground v.1.15,2013-07-02 16:30:00,
2013-07-02 12:40:00,64.1,63.2,29.81,NE,51,4.0,5.0,97,0.00,,,0.01,Wunderground v.1.15,2013-07-02 16:40:00,
2013-07-02 12:45:00,64.1,63.2,29.81,East,79,5.0,5.0,97,0.00,,,0.01,Wunderground v.1.15,2013-07-02 16:45:00,
2013-07-02 12:50:00,64.2,63.3,29.81,ENE,68,4.0,5.0,97,0.00,,,0.01,Wunderground v.1.15,2013-07-02 16:50:00,
2013-07-02 13:00:00,64.2,63.3,29.82,NE,35,4.0,4.0,97,0.00,,,0.01,Wunderground v.1.15,2013-07-02 17:00:00,
2013-07-02 13:10:00,64.4,63.5,29.81,NE,37,3.0,3.0,97,0.00,,,0.01,Wunderground v.1.15,2013-07-02 17:10:00,
2013-07-02 13:20:00,64.2,63.3,29.81,North,355,4.0,4.0,97,0.00,,,0.01,Wunderground v.1.15,2013-07-02 17:20:00,
2013-07-02 13:30:00,64.1,63.2,29.81,ENE,62,4.0,4.0,97,0.00,,,0.01,Wunderground v.1.15,2013-07-02 17:30:00,
2013-07-02 13:35:00,64.2,63.3,29.81,NE,51,4.0,4.0,97,0.00,,,0.01,Wunderground v.1.15,2013-07-02 17:35:00,
2013-07-02 13:40:00,64.4,63.5,29.81,ENE,65,3.0,7.0,97,0.00,,,0.01,Wunderground v.1.15,2013-07-02 17:40:00,
2013-07-02 13:50:00,64.6,63.7,29.81,NE,36,4.0,4.0,97,0.00,,,0.01,Wunderground v.1.15,2013-07-02 17:50:00,
2013-07-02 13:55:00,64.7,63.8,29.81,North,351,3.0,6.0,97,0.00,,,0.01,Wunderground v.1.15,2013-07-02 17:55:00,
2013-07-02 14:06:00,64.8,63.6,29.80,East,81,5.0,6.0,96,0.00,,,0.01,Wunderground v.1.15,2013-07-02 18:06:00,
2013-07-02 14:15:00,65.0,63.8,29.81,ENE,78,5.0,5.0,96,0.00,,,0.01,Wunderground v.1.15,2013-07-02 18:15:00,
2013-07-02 14:25:00,65.7,64.5,29.80,ENE,59,4.0,4.0,96,0.00,,,0.01,Wunderground v.1.15,2013-07-02 18:25:00,
2013-07-02 14:35:00,66.0,64.5,29.80,ENE,62,3.0,5.0,95,0.00,,,0.01,Wunderground v.1.15,2013-07-02 18:35:00,
2013-07-02 14:45:00,66.1,64.3,29.81,ENE,61,4.0,4.0,94,0.00,,,0.01,Wunderground v.1.15,2013-07-02 18:45:00,
2013-07-02 14:55:00,66.1,64.3,29.81,NNW,345,3.0,4.0,94,0.00,,,0.01,Wunderground v.1.15,2013-07-02 18:55:00,
2013-07-02 15:06:00,66.4,64.6,29.81,NNW,329,3.0,5.0,94,0.00,,,0.01,Wunderground v.1.15,2013-07-02 19:06:00,
2013-07-02 15:15:00,66.7,64.6,29.81,East,100,3.0,4.0,93,0.00,,,0.01,Wunderground v.1.15,2013-07-02 19:15:00,
2013-07-02 15:25:00,66.6,64.5,29.81,ENE,76,4.0,7.0,93,0.00,,,0.01,Wunderground v.1.15,2013-07-02 19:25:00,
2013-07-02 15:35:00,66.7,64.6,29.80,NNE,24,3.0,5.0,93,0.00,,,0.01,Wunderground v.1.15,2013-07-02 19:35:00,
2013-07-02 15:45:00,67.0,64.9,29.80,ESE,102,3.0,4.0,93,0.00,,,0.01,Wunderground v.1.15,2013-07-02 19:45:00,
2013-07-02 15:50:00,67.2,65.1,29.80,WNW,302,3.0,3.0,93,0.00,,,0.01,Wunderground v.1.15,2013-07-02 19:50:00,
2013-07-02 15:55:00,67.2,64.8,29.81,ENE,59,3.0,3.0,92,0.00,,,0.01,Wunderground v.1.15,2013-07-02 19:55:00,
2013-07-02 16:06:00,67.0,64.6,29.80,ENE,61,4.0,4.0,92,0.00,,,0.01,Wunderground v.1.15,2013-07-02 20:06:00,
2013-07-02 16:15:00,66.9,64.5,29.80,ENE,66,3.0,5.0,92,0.00,,,0.01,Wunderground v.1.15,2013-07-02 20:15:00,
2013-07-02 16:25:00,67.2,64.8,29.80,North,5,4.0,4.0,92,0.00,,,0.01,Wunderground v.1.15,2013-07-02 20:25:00,
2013-07-02 16:35:00,67.4,64.7,29.80,NNE,31,3.0,4.0,91,0.00,,,0.02,Wunderground v.1.15,2013-07-02 20:35:00,
2013-07-02 16:45:00,67.5,65.1,29.80,ENE,74,2.0,3.0,92,0.00,,,0.02,Wunderground v.1.15,2013-07-02 20:45:00,
2013-07-02 16:55:00,67.5,64.8,29.80,NE,48,3.0,5.0,91,0.00,,,0.02,Wunderground v.1.15,2013-07-02 20:55:00,
2013-07-02 17:05:00,68.1,65.4,29.80,NE,40,2.0,3.0,91,0.00,,,0.02,Wunderground v.1.15,2013-07-02 21:05:00,
2013-07-02 17:15:00,68.7,65.3,29.80,North,9,3.0,5.0,89,0.00,,,0.02,Wunderground v.1.15,2013-07-02 21:15:00,
2013-07-02 17:25:00,69.2,65.5,29.80,NNE,21,4.0,4.0,88,0.00,,,0.02,Wunderground v.1.15,2013-07-02 21:25:00,
2013-07-02 17:30:00,69.3,65.9,29.80,NE,44,3.0,4.0,89,0.00,,,0.02,Wunderground v.1.15,2013-07-02 21:30:00,
2013-07-02 17:40:00,69.7,66.0,29.80,NE,55,3.0,3.0,88,0.00,,,0.03,Wunderground v.1.15,2013-07-02 21:40:00,
2013-07-02 17:45:00,69.4,65.7,29.80,ENE,70,4.0,4.0,88,0.00,,,0.03,Wunderground v.1.15,2013-07-02 21:45:00,
2013-07-02 17:50:00,69.0,65.6,29.80,NE,51,3.0,3.0,89,0.00,,,0.03,Wunderground v.1.15,2013-07-02 21:50:00,
2013-07-02 18:00:00,69.5,66.1,29.79,NNE,13,3.0,3.0,89,0.00,,,0.03,Wunderground v.1.15,2013-07-02 22:00:00,
2013-07-02 18:05:00,69.8,66.4,29.79,ESE,103,3.0,5.0,89,0.00,,,0.03,Wunderground v.1.15,2013-07-02 22:05:00,
2013-07-02 18:15:00,70.0,66.3,29.79,NE,48,3.0,3.0,88,0.00,,,0.03,Wunderground v.1.15,2013-07-02 22:15:00,
2013-07-02 18:25:00,70.6,66.5,29.79,ENE,78,1.0,3.0,87,0.00,,,0.03,Wunderground v.1.15,2013-07-02 22:25:00,
2013-07-02 18:30:00,70.7,66.6,29.79,East,89,2.0,2.0,87,0.00,,,0.03,Wunderground v.1.15,2013-07-02 22:30:00,
2013-07-02 18:35:00,70.6,66.2,29.79,North,355,3.0,3.0,86,0.00,,,0.03,Wunderground v.1.15,2013-07-02 22:35:00,
2013-07-02 18:45:00,70.4,66.3,29.80,East,80,2.0,3.0,87,0.00,,,0.03,Wunderground v.1.15,2013-07-02 22:45:00,
2013-07-02 18:50:00,70.5,66.4,29.79,East,79,2.0,2.0,87,0.00,,,0.03,Wunderground v.1.15,2013-07-02 22:50:00,
2013-07-02 18:55:00,70.6,66.9,29.80,East,79,2.0,3.0,88,0.00,,,0.03,Wunderground v.1.15,2013-07-02 22:55:00,
2013-07-02 19:06:00,70.4,66.3,29.81,East,88,3.0,3.0,87,0.00,,,0.03,Wunderground v.1.15,2013-07-02 23:06:00,
2013-07-02 19:15:00,70.4,66.3,29.81,ENE,68,2.0,3.0,87,0.00,,,0.03,Wunderground v.1.15,2013-07-02 23:15:00,
2013-07-02 19:25:00,70.3,66.6,29.82,ENE,65,2.0,2.0,88,0.00,,,0.03,Wunderground v.1.15,2013-07-02 23:25:00,
2013-07-02 19:30:00,70.3,66.6,29.82,East,96,1.0,2.0,88,0.00,,,0.03,Wunderground v.1.15,2013-07-02 23:30:00,
2013-07-02 19:35:00,70.3,66.6,29.82,ESE,103,2.0,2.0,88,0.00,,,0.03,Wunderground v.1.15,2013-07-02 23:35:00,
2013-07-02 19:45:00,70.2,66.5,29.82,ESE,103,2.0,2.0,88,0.00,,,0.03,Wunderground v.1.15,2013-07-02 23:45:00,
2013-07-02 19:55:00,69.9,66.2,29.82,ESE,103,1.0,2.0,88,0.00,,,0.03,Wunderground v.1.15,2013-07-02 23:55:00,
2013-07-02 20:05:00,69.7,66.3,29.82,ESE,103,1.0,2.0,89,0.00,,,0.03,Wunderground v.1.15,2013-07-03 00:05:00,
2013-07-02 20:15:00,69.6,66.2,29.82,ESE,103,1.0,1.0,89,0.00,,,0.03,Wunderground v.1.15,2013-07-03 00:15:00,
2013-07-02 20:25:00,69.5,66.1,29.82,ESE,103,0.0,1.0,89,0.00,,,0.03,Wunderground v.1.15,2013-07-03 00:25:00,
2013-07-02 20:30:00,69.5,66.4,29.82,ESE,103,0.0,1.0,90,0.00,,,0.03,Wunderground v.1.15,2013-07-03 00:30:00,
2013-07-02 20:35:00,69.4,66.3,29.82,ESE,103,0.0,1.0,90,0.00,,,0.03,Wunderground v.1.15,2013-07-03 00:35:00,
2013-07-02 20:45:00,69.3,66.6,29.82,NNW,331,0.0,1.0,91,0.00,,,0.03,Wunderground v.1.15,2013-07-03 00:45:00,
2013-07-02 20:50:00,69.2,66.5,29.82,NNW,331,1.0,1.0,91,0.00,,,0.03,Wunderground v.1.15,2013-07-03 00:50:00,
2013-07-02 21:00:00,69.1,66.4,29.82,NNW,331,0.0,0.0,91,0.00,,,0.03,Wunderground v.1.15,2013-07-03 01:00:00,
2013-07-02 21:06:00,69.0,66.3,29.82,NNW,331,0.0,0.0,91,0.00,,,0.03,Wunderground v.1.15,2013-07-03 01:06:00,
2013-07-02 21:15:00,68.9,66.5,29.82,NNW,331,1.0,2.0,92,0.00,,,0.03,Wunderground v.1.15,2013-07-03 01:15:00,
2013-07-02 21:20:00,68.8,66.4,29.82,NNW,331,1.0,1.0,92,0.00,,,0.03,Wunderground v.1.15,2013-07-03 01:20:00,
2013-07-02 21:25:00,68.7,66.3,29.82,NNW,331,1.0,1.0,92,0.00,,,0.03,Wunderground v.1.15,2013-07-03 01:25:00,
2013-07-02 21:35:00,68.5,66.1,29.82,NNW,331,0.0,1.0,92,0.00,,,0.03,Wunderground v.1.15,2013-07-03 01:35:00,
2013-07-02 21:40:00,68.4,66.0,29.82,NNW,331,0.0,0.0,92,0.00,,,0.03,Wunderground v.1.15,2013-07-03 01:40:00,
2013-07-02 21:45:00,68.3,66.2,29.82,East,82,1.0,1.0,93,0.00,,,0.03,Wunderground v.1.15,2013-07-03 01:45:00,
2013-07-02 21:55:00,68.3,66.2,29.83,East,82,0.0,0.0,93,0.00,,,0.03,Wunderground v.1.15,2013-07-03 01:55:00,
2013-07-02 22:06:00,68.2,66.1,29.83,East,82,1.0,1.0,93,0.00,,,0.03,Wunderground v.1.15,2013-07-03 02:06:00,
2013-07-02 22:15:00,68.1,66.0,29.83,East,82,0.0,1.0,93,0.00,,,0.03,Wunderground v.1.15,2013-07-03 02:15:00,
2013-07-02 22:25:00,68.0,66.2,29.83,East,82,0.0,2.0,94,0.00,,,0.03,Wunderground v.1.15,2013-07-03 02:25:00,
2013-07-02 22:35:00,67.9,65.8,29.82,East,82,1.0,2.0,93,0.00,,,0.03,Wunderground v.1.15,2013-07-03 02:35:00,
2013-07-02 22:45:00,67.8,66.0,29.83,East,82,1.0,1.0,94,0.00,,,0.03,Wunderground v.1.15,2013-07-03 02:45:00,
2013-07-02 22:50:00,67.7,65.9,29.83,East,82,1.0,1.0,94,0.00,,,0.03,Wunderground v.1.15,2013-07-03 02:50:00,
2013-07-02 23:00:00,67.7,65.9,29.83,East,82,0.0,1.0,94,0.00,,,0.03,Wunderground v.1.15,2013-07-03 03:00:00,
2013-07-02 23:06:00,67.6,65.8,29.83,East,82,1.0,1.0,94,0.00,,,0.03,Wunderground v.1.15,2013-07-03 03:06:00,
2013-07-02 23:20:00,67.4,65.6,29.82,East,82,1.0,2.0,94,0.00,,,0.03,Wunderground v.1.15,2013-07-03 03:20:00,
2013-07-02 23:25:00,67.3,65.5,29.82,East,82,1.0,3.0,94,0.00,,,0.03,Wunderground v.1.15,2013-07-03 03:25:00,
2013-07-02 23:30:00,67.2,65.7,29.82,East,82,2.0,2.0,95,0.00,,,0.03,Wunderground v.1.15,2013-07-03 03:30:00,
2013-07-02 23:40:00,67.2,65.7,29.83,East,82,1.0,1.0,95,0.00,,,0.03,Wunderground v.1.15,2013-07-03 03:40:00,
2013-07-02 23:50:00,67.1,65.6,29.83,East,82,1.0,1.0,95,0.00,,,0.03,Wunderground v.1.15,2013-07-03 03:50:00,
2013-07-02 23:55:00,67.1,65.6,29.82,East,82,0.0,1.0,95,0.00,,,0.03,Wunderground v.1.15,2013-07-03 03:55:00,